createdAt,value
2023-02-09T00:00:13.731Z,23.1
2023-02-09T00:01:30.837Z,22.3
2023-02-09T00:02:46.964Z,21.5
2023-02-09T00:04:03.086Z,22.2
2023-02-09T00:05:20.191Z,20
2023-02-09T00:06:36.318Z,24.3
2023-02-09T00:07:52.440Z,22
2023-02-09T00:09:09.546Z,24
2023-02-09T00:10:26.652Z,19.9
2023-02-09T00:11:43.757Z,22.4
2023-02-09T00:13:00.863Z,20.6
2023-02-09T00:14:17.969Z,22.8
2023-02-09T00:15:35.075Z,22.8
2023-02-09T00:16:52.181Z,22.8
2023-02-09T00:18:09.286Z,22.4
2023-02-09T00:19:26.392Z,23.2
2023-02-09T00:20:43.499Z,21.9
2023-02-09T00:22:00.605Z,22.2
2023-02-09T00:23:17.710Z,24.6
2023-02-09T00:24:33.832Z,23.1
2023-02-09T00:25:50.938Z,21.8
2023-02-09T00:27:08.044Z,23.4
2023-02-09T00:28:25.150Z,20.7
2023-02-09T00:29:42.256Z,22.1
2023-02-09T00:30:59.361Z,22
2023-02-09T00:32:16.467Z,20.9
2023-02-09T00:33:32.594Z,21.3
2023-02-09T00:34:48.716Z,21.8
2023-02-09T00:36:05.821Z,23.1
2023-02-09T00:37:22.927Z,20.2
2023-02-09T00:38:39.054Z,22.1
2023-02-09T00:39:55.176Z,18.6
2023-02-09T00:41:12.282Z,23.3
2023-02-09T00:42:29.387Z,21.7
2023-02-09T00:43:46.494Z,22.7
2023-02-09T00:45:03.599Z,19.9
2023-02-09T00:46:20.705Z,22.7
2023-02-09T00:47:37.811Z,21.2
2023-02-09T00:48:54.917Z,20.7
2023-02-09T00:50:12.022Z,21.2
2023-02-09T00:51:29.128Z,22.6
2023-02-09T00:52:46.234Z,21.9
2023-02-09T00:54:03.339Z,22.3
2023-02-09T00:55:20.445Z,21.8
2023-02-09T00:56:36.567Z,21.5
2023-02-09T00:57:53.673Z,23.2
2023-02-09T00:59:10.778Z,21.4
2023-02-09T01:00:27.884Z,21.5
2023-02-09T01:01:44.989Z,23.5
2023-02-09T01:03:02.095Z,23.1
2023-02-09T01:04:19.201Z,22
2023-02-09T01:05:35.328Z,23.4
2023-02-09T01:06:51.450Z,21.7
2023-02-09T01:08:07.577Z,21.8
2023-02-09T01:09:23.698Z,22.8
2023-02-09T01:10:40.805Z,22.5
2023-02-09T01:11:57.910Z,23
2023-02-09T01:13:15.016Z,23.3
2023-02-09T01:14:31.138Z,23.5
2023-02-09T01:15:48.244Z,22.9
2023-02-09T01:17:05.349Z,25
2023-02-09T01:18:22.455Z,22.7
2023-02-09T01:19:39.561Z,23.3
2023-02-09T01:20:56.667Z,24
2023-02-09T01:22:13.773Z,24.4
2023-02-09T01:23:30.879Z,26.3
2023-02-09T01:24:47.984Z,23.3
2023-02-09T01:26:05.090Z,24.4
2023-02-09T01:27:22.196Z,26
2023-02-09T01:28:39.301Z,22.6
2023-02-09T01:29:56.407Z,23.5
2023-02-09T01:31:12.529Z,25.3
2023-02-09T01:32:29.635Z,21.4
2023-02-09T01:33:46.741Z,24.1
2023-02-09T01:35:02.868Z,22.3
2023-02-09T01:36:18.990Z,25
2023-02-09T01:37:36.096Z,24.2
2023-02-09T01:38:52.222Z,23
2023-02-09T01:40:08.344Z,21.2
2023-02-09T01:41:25.450Z,22.7
2023-02-09T01:42:42.556Z,23.6
2023-02-09T01:43:59.661Z,22.7
2023-02-09T01:45:16.767Z,23.7
2023-02-09T01:46:33.873Z,25.2
2023-02-09T01:47:50.978Z,23.5
2023-02-09T01:49:08.084Z,21.9
2023-02-09T01:50:25.190Z,23.2
2023-02-09T01:51:42.296Z,23.1
2023-02-09T01:52:59.402Z,24
2023-02-09T01:54:16.507Z,23.5
2023-02-09T01:55:33.613Z,22.7
2023-02-09T01:56:49.735Z,22.9
2023-02-09T01:58:06.841Z,23.7
2023-02-09T01:59:23.947Z,26.1
2023-02-09T02:00:41.053Z,22.3
2023-02-09T02:01:58.158Z,24.4
2023-02-09T02:03:15.264Z,23.9
2023-02-09T02:04:32.370Z,23.6
2023-02-09T02:05:48.497Z,25.9
2023-02-09T02:07:04.619Z,24.8
2023-02-09T02:08:20.746Z,24.4
2023-02-09T02:09:36.868Z,23.4
2023-02-09T02:10:53.973Z,24.1
2023-02-09T02:12:11.079Z,25
2023-02-09T02:13:28.185Z,25
2023-02-09T02:14:45.291Z,24.2
2023-02-09T02:16:02.397Z,21.9
2023-02-09T02:17:19.503Z,24.7
2023-02-09T02:18:36.609Z,25.6
2023-02-09T02:19:53.715Z,24.3
2023-02-09T02:21:10.821Z,24.2
2023-02-09T02:22:27.927Z,23.1
2023-02-09T02:23:45.032Z,25.3
2023-02-09T02:25:02.138Z,24.3
2023-02-09T02:26:18.260Z,24.7
2023-02-09T02:27:35.366Z,25.4
2023-02-09T02:28:52.472Z,24.8
2023-02-09T02:30:09.578Z,24.7
2023-02-09T02:31:26.683Z,24.1
2023-02-09T02:32:43.789Z,24.2
2023-02-09T02:34:00.895Z,25.7
2023-02-09T02:35:17.022Z,24.2
2023-02-09T02:36:33.144Z,25.1
2023-02-09T02:37:49.271Z,25.7
2023-02-09T02:39:05.392Z,24.9
2023-02-09T02:40:22.498Z,25.4
2023-02-09T02:41:39.604Z,25.4
2023-02-09T02:42:56.710Z,27
2023-02-09T02:44:13.816Z,24.6
2023-02-09T02:45:30.921Z,25.7
2023-02-09T02:46:48.027Z,26.5
2023-02-09T02:48:05.133Z,27.7
2023-02-09T02:49:22.239Z,24.7
2023-02-09T02:50:39.344Z,26
2023-02-09T02:51:56.450Z,26.7
2023-02-09T02:53:13.556Z,25.2
2023-02-09T02:54:30.662Z,24.3
2023-02-09T02:55:46.784Z,25.7
2023-02-09T02:57:03.890Z,25.1
2023-02-09T02:58:20.996Z,26.8
2023-02-09T02:59:38.102Z,27.1
2023-02-09T03:00:55.208Z,26.1
2023-02-09T03:02:12.313Z,26.2
2023-02-09T03:03:29.419Z,26.9
2023-02-09T03:04:45.546Z,25.5
2023-02-09T03:06:01.668Z,26.5
2023-02-09T03:07:18.774Z,24.8
2023-02-09T03:08:34.901Z,26
2023-02-09T03:09:51.023Z,24.1
2023-02-09T03:11:08.129Z,25.5
2023-02-09T03:12:25.235Z,26.2
2023-02-09T03:13:42.341Z,24.8
2023-02-09T03:14:59.446Z,24.3
2023-02-09T03:16:16.553Z,26.5
2023-02-09T03:17:33.659Z,25.2
2023-02-09T03:18:50.765Z,26.1
2023-02-09T03:20:07.871Z,25.2
2023-02-09T03:21:24.975Z,25.2
2023-02-09T03:22:42.080Z,26.7
2023-02-09T03:23:59.186Z,26.8
2023-02-09T03:25:16.292Z,26.4
2023-02-09T03:26:32.414Z,27.1
2023-02-09T03:27:49.520Z,25.5
2023-02-09T03:29:06.625Z,27.1
2023-02-09T03:30:23.731Z,28.4
2023-02-09T03:31:40.837Z,24.4
2023-02-09T03:32:57.943Z,27.2
2023-02-09T03:34:15.049Z,28.6
2023-02-09T03:35:31.176Z,25.5
2023-02-09T03:36:47.298Z,27.7
2023-02-09T03:38:03.425Z,29.5
2023-02-09T03:39:19.546Z,27.4
2023-02-09T03:40:36.652Z,28
2023-02-09T03:41:53.758Z,28.5
2023-02-09T03:43:10.864Z,29
2023-02-09T03:44:27.969Z,26.8
2023-02-09T03:45:45.075Z,30
2023-02-09T03:47:02.181Z,28.6
2023-02-09T03:48:19.286Z,29.3
2023-02-09T03:49:36.392Z,29.2
2023-02-09T03:50:53.498Z,25.9
2023-02-09T03:52:10.604Z,26.4
2023-02-09T03:53:27.709Z,27.1
2023-02-09T03:54:44.815Z,30
2023-02-09T03:56:00.936Z,28
2023-02-09T03:57:18.042Z,26.6
2023-02-09T03:58:35.148Z,29.4
2023-02-09T03:59:52.253Z,27.7
2023-02-09T04:01:09.360Z,28.2
2023-02-09T04:02:26.465Z,28.4
2023-02-09T04:03:43.571Z,29.3
2023-02-09T04:04:59.698Z,27.5
2023-02-09T04:06:15.820Z,29.4
2023-02-09T04:07:31.947Z,32.6
2023-02-09T04:08:48.068Z,28
2023-02-09T04:10:05.174Z,29.5
2023-02-09T04:11:22.279Z,30.2
2023-02-09T04:12:39.386Z,27.8
2023-02-09T04:13:56.493Z,26.2
2023-02-09T04:15:13.598Z,28.8
2023-02-09T04:16:30.704Z,26.5
2023-02-09T04:17:47.811Z,29.2
2023-02-09T04:19:04.917Z,27.8
2023-02-09T04:20:22.022Z,28.5
2023-02-09T04:21:39.128Z,30
2023-02-09T04:22:56.233Z,27
2023-02-09T04:24:13.339Z,28
2023-02-09T04:25:30.445Z,27.8
2023-02-09T04:26:46.567Z,26.6
2023-02-09T04:28:03.673Z,29.5
2023-02-09T04:29:20.778Z,27.8
2023-02-09T04:30:37.885Z,27.7
2023-02-09T04:31:54.991Z,31.2
2023-02-09T04:33:12.096Z,31.8
2023-02-09T04:34:28.223Z,30.4
2023-02-09T04:35:44.345Z,31
2023-02-09T04:37:00.472Z,31.1
2023-02-09T04:38:16.593Z,29.3
2023-02-09T04:39:33.699Z,31.6
2023-02-09T04:40:50.805Z,30.2
2023-02-09T04:42:07.911Z,28.9
2023-02-09T04:43:25.017Z,29.9
2023-02-09T04:44:42.122Z,31.5
2023-02-09T04:45:59.228Z,31.2
2023-02-09T04:47:16.334Z,31.7
2023-02-09T04:48:33.439Z,30.7
2023-02-09T04:49:50.545Z,31.1
2023-02-09T04:51:07.651Z,32.7
2023-02-09T04:52:24.757Z,32.1
2023-02-09T04:53:41.862Z,29.7
2023-02-09T04:54:57.984Z,30.7
2023-02-09T04:56:15.090Z,32.2
2023-02-09T04:57:32.196Z,29.7
2023-02-09T04:58:49.302Z,32
2023-02-09T05:00:06.409Z,30
2023-02-09T05:01:23.515Z,30.9
2023-02-09T05:02:40.621Z,32.3
2023-02-09T05:03:56.748Z,31.9
2023-02-09T05:05:12.870Z,31.9
2023-02-09T05:06:29.976Z,29.5
2023-02-09T05:07:46.103Z,32.2
2023-02-09T05:09:02.225Z,30.6
2023-02-09T05:10:19.331Z,32.2
2023-02-09T05:11:36.437Z,31.3
2023-02-09T05:12:53.543Z,29.1
2023-02-09T05:14:10.649Z,34.2
2023-02-09T05:15:27.755Z,32.3
2023-02-09T05:18:01.968Z,30.3
2023-02-09T05:19:19.074Z,31.4
2023-02-09T05:20:36.180Z,32.1
2023-02-09T05:21:53.286Z,31.2
2023-02-09T05:23:10.392Z,30.6
2023-02-09T05:24:27.499Z,31.7
2023-02-09T05:25:43.621Z,30.7
2023-02-09T05:27:00.727Z,33.7
2023-02-09T05:28:17.833Z,32.3
2023-02-09T05:29:34.940Z,31.7
2023-02-09T05:30:52.047Z,32
2023-02-09T05:33:25.275Z,31.6
2023-02-09T05:34:41.413Z,32.4
2023-02-09T05:35:57.535Z,32.5
2023-02-09T05:37:14.642Z,31.9
2023-02-09T05:38:31.748Z,32.8
2023-02-09T05:39:48.854Z,33.9
2023-02-09T05:41:05.961Z,31.8
2023-02-09T05:42:23.067Z,33.8
2023-02-09T05:43:40.173Z,35
2023-02-09T05:44:57.280Z,33.1
2023-02-09T05:46:14.386Z,34
2023-02-09T05:47:31.492Z,32.2
2023-02-09T05:48:47.620Z,34.5
2023-02-09T05:50:03.742Z,34.9
2023-02-09T05:51:20.849Z,37.5
2023-02-09T05:52:37.955Z,34.2
2023-02-09T05:53:55.061Z,36.4
2023-02-09T05:55:12.168Z,36.1
2023-02-09T05:56:29.274Z,40.5
2023-02-09T05:57:46.381Z,36.6
2023-02-09T05:59:03.487Z,36.4
2023-02-09T06:00:20.593Z,36.8
2023-02-09T06:01:37.700Z,34.6
2023-02-09T06:02:54.806Z,35.8
2023-02-09T06:04:11.912Z,32.9
2023-02-09T06:05:29.019Z,31.4
2023-02-09T06:06:45.141Z,30.9
2023-02-09T06:08:02.248Z,31.8
2023-02-09T06:09:19.354Z,32.6
2023-02-09T06:10:36.461Z,31.9
2023-02-09T06:11:53.567Z,32.3
2023-02-09T06:13:10.673Z,32.2
2023-02-09T06:14:27.780Z,31.6
2023-02-09T06:15:44.886Z,30.7
2023-02-09T06:17:01.014Z,32.7
2023-02-09T06:18:17.136Z,33.3
2023-02-09T06:19:34.242Z,33.9
2023-02-09T06:20:50.370Z,33.3
2023-02-09T06:22:06.493Z,36.1
2023-02-09T06:23:23.599Z,32.5
2023-02-09T06:24:40.706Z,33.9
2023-02-09T06:25:57.812Z,30.9
2023-02-09T06:27:14.918Z,32.1
2023-02-09T06:28:32.025Z,33.9
2023-02-09T06:29:49.129Z,34.9
2023-02-09T06:31:06.235Z,33.8
2023-02-09T06:32:23.342Z,35.2
2023-02-09T06:34:57.554Z,36.3
2023-02-09T06:36:14.661Z,40.7
2023-02-09T06:37:31.767Z,36.3
2023-02-09T06:38:47.890Z,36.9
2023-02-09T06:40:04.996Z,36.6
2023-02-09T06:41:22.102Z,36.8
2023-02-09T06:42:39.208Z,35.8
2023-02-09T06:43:56.314Z,36.5
2023-02-09T06:45:13.420Z,38.1
2023-02-09T06:46:30.526Z,36.4
2023-02-09T06:47:47.632Z,44.3
2023-02-09T06:49:03.759Z,38
2023-02-09T06:50:19.882Z,37.9
2023-02-09T06:51:36.987Z,33.3
2023-02-09T06:52:54.093Z,37.5
2023-02-09T06:54:10.220Z,36.3
2023-02-09T06:55:26.342Z,33
2023-02-09T06:56:43.448Z,34.2
2023-02-09T06:58:00.554Z,33.2
2023-02-09T06:59:17.660Z,34.2
2023-02-09T07:00:34.767Z,31.7
2023-02-09T07:01:51.873Z,32
2023-02-09T07:03:08.979Z,33.5
2023-02-09T07:04:26.085Z,38.2
2023-02-09T07:05:43.191Z,35.5
2023-02-09T07:07:00.297Z,33.4
2023-02-09T07:08:17.403Z,36.8
2023-02-09T07:09:34.510Z,36.8
2023-02-09T07:10:51.616Z,37.7
2023-02-09T07:12:07.738Z,33.4
2023-02-09T07:13:24.844Z,35.4
2023-02-09T07:14:41.951Z,36
2023-02-09T07:15:59.057Z,34.1
2023-02-09T07:17:16.163Z,33.8
2023-02-09T07:18:33.269Z,36.5
2023-02-09T07:19:50.375Z,34.6
2023-02-09T07:21:06.503Z,36.5
2023-02-09T07:22:22.625Z,35.2
2023-02-09T07:23:39.731Z,36.1
2023-02-09T07:24:55.859Z,33.8
2023-02-09T07:26:11.981Z,34.8
2023-02-09T07:27:29.088Z,34.7
2023-02-09T07:28:46.194Z,33.8
2023-02-09T07:30:03.300Z,34
2023-02-09T07:31:20.406Z,38
2023-02-09T07:32:37.512Z,36.5
2023-02-09T07:33:54.618Z,35.2
2023-02-09T07:35:11.724Z,33.8
2023-02-09T07:36:28.829Z,38.4
2023-02-09T07:37:45.935Z,38.8
2023-02-09T07:39:03.038Z,33.9
2023-02-09T07:40:20.144Z,34.1
2023-02-09T07:41:37.250Z,30.5
2023-02-09T07:42:53.371Z,30.7
2023-02-09T07:44:10.477Z,27.9
2023-02-09T07:45:27.584Z,32.2
2023-02-09T07:46:44.689Z,29.8
2023-02-09T07:48:01.795Z,29.1
2023-02-09T07:49:18.901Z,29.6
2023-02-09T07:50:36.008Z,30.5
2023-02-09T07:51:52.135Z,26.4
2023-02-09T07:53:08.256Z,27.4
2023-02-09T07:54:25.361Z,28.2
2023-02-09T07:55:41.488Z,28.4
2023-02-09T07:56:57.609Z,29.6
2023-02-09T07:58:14.715Z,30.8
2023-02-09T07:59:31.820Z,28.5
2023-02-09T08:00:48.926Z,29.6
2023-02-09T08:02:06.031Z,28.6
2023-02-09T08:03:23.136Z,28.1
2023-02-09T08:04:40.241Z,27.5
2023-02-09T08:05:57.346Z,29.1
2023-02-09T08:07:14.451Z,29.8
2023-02-09T08:08:31.556Z,29.1
2023-02-09T08:09:48.661Z,29.1
2023-02-09T08:11:05.767Z,28.6
2023-02-09T08:12:22.872Z,27.4
2023-02-09T08:13:38.993Z,29.2
2023-02-09T08:14:56.099Z,26.9
2023-02-09T08:16:13.204Z,27
2023-02-09T08:17:30.309Z,27.8
2023-02-09T08:18:47.413Z,27.5
2023-02-09T08:20:04.519Z,26.9
2023-02-09T08:21:21.624Z,26.6
2023-02-09T08:22:37.750Z,27.1
2023-02-09T08:23:53.871Z,27.8
2023-02-09T08:25:10.976Z,27.6
2023-02-09T08:26:27.102Z,27
2023-02-09T08:27:43.223Z,27.7
2023-02-09T08:29:00.328Z,28.6
2023-02-09T08:30:17.432Z,29
2023-02-09T08:31:34.537Z,27.9
2023-02-09T08:32:51.642Z,28.5
2023-02-09T08:34:08.747Z,29.6
2023-02-09T08:35:25.849Z,26.8
2023-02-09T08:36:42.954Z,26.5
2023-02-09T08:38:00.059Z,27.2
2023-02-09T08:39:17.163Z,27.9
2023-02-09T08:40:34.268Z,25.7
2023-02-09T08:41:51.373Z,26.8
2023-02-09T08:43:08.478Z,28.6
2023-02-09T08:44:24.598Z,27.3
2023-02-09T08:45:41.703Z,29.7
2023-02-09T08:46:58.808Z,28.1
2023-02-09T08:48:15.912Z,28.1
2023-02-09T08:49:33.017Z,27.6
2023-02-09T08:50:50.122Z,27.9
2023-02-09T08:52:07.226Z,27.8
2023-02-09T08:53:23.352Z,27.7
2023-02-09T08:54:39.473Z,28.6
2023-02-09T08:55:56.578Z,28.9
2023-02-09T08:57:13.683Z,27.3
2023-02-09T08:58:29.809Z,27.7
2023-02-09T08:59:45.930Z,29.9
2023-02-09T09:01:03.034Z,27.3
2023-02-09T09:02:20.139Z,28.1
2023-02-09T09:03:37.243Z,26.4
2023-02-09T09:04:54.348Z,25.4
2023-02-09T09:06:11.452Z,27.1
2023-02-09T09:07:28.557Z,25.9
2023-02-09T09:08:45.662Z,26.3
2023-02-09T09:10:02.766Z,26.7
2023-02-09T09:11:19.870Z,24.9
2023-02-09T09:12:36.975Z,25.9
2023-02-09T09:13:54.079Z,25.3
2023-02-09T09:15:11.184Z,24
2023-02-09T09:16:28.288Z,24.4
2023-02-09T09:17:44.408Z,25.4
2023-02-09T09:19:01.513Z,27.9
2023-02-09T09:20:18.618Z,25.7
2023-02-09T09:21:35.722Z,24.8
2023-02-09T09:22:52.827Z,25.2
2023-02-09T09:24:09.931Z,24.1
2023-02-09T09:25:26.057Z,22.8
2023-02-09T09:26:42.178Z,25.3
2023-02-09T09:27:59.282Z,26.1
2023-02-09T09:29:16.387Z,25.8
2023-02-09T09:30:33.492Z,25.9
2023-02-09T09:31:50.597Z,26.2
2023-02-09T09:33:07.702Z,26
2023-02-09T09:34:24.806Z,24.7
2023-02-09T09:35:41.911Z,28.1
2023-02-09T09:36:59.015Z,24.6
2023-02-09T09:38:16.119Z,25.7
2023-02-09T09:39:33.224Z,26.7
2023-02-09T09:40:50.328Z,26
2023-02-09T09:42:07.432Z,26.3
2023-02-09T09:43:23.552Z,26
2023-02-09T09:44:40.657Z,27.2
2023-02-09T09:45:57.761Z,25.8
2023-02-09T09:47:14.865Z,25.2
2023-02-09T09:48:31.970Z,25.1
2023-02-09T09:49:49.074Z,25.8
2023-02-09T09:51:06.178Z,26
2023-02-09T09:52:22.314Z,25.7
2023-02-09T09:53:38.434Z,26.9
2023-02-09T09:54:54.560Z,25.5
2023-02-09T09:56:10.680Z,26
2023-02-09T09:57:27.784Z,26.4
2023-02-09T09:58:44.889Z,25.1
2023-02-09T10:00:01.994Z,26.3
2023-02-09T10:01:19.098Z,25.2
2023-02-09T10:02:36.202Z,25.2
2023-02-09T10:03:53.304Z,26.5
2023-02-09T10:05:10.408Z,24.7
2023-02-09T10:06:27.513Z,24.1
2023-02-09T10:07:44.617Z,24.4
2023-02-09T10:09:01.722Z,26.8
2023-02-09T10:10:18.827Z,27.3
2023-02-09T10:11:35.932Z,24.6
2023-02-09T10:12:52.053Z,24.5
2023-02-09T10:14:09.157Z,25
2023-02-09T10:15:26.262Z,27
2023-02-09T10:16:43.367Z,24.1
2023-02-09T10:18:00.471Z,25.4
2023-02-09T10:19:17.576Z,26.2
2023-02-09T10:20:34.681Z,24.1
2023-02-09T10:21:50.807Z,26.9
2023-02-09T10:23:06.928Z,25
2023-02-09T10:24:24.033Z,26.6
2023-02-09T10:25:41.138Z,27.3
2023-02-09T10:26:58.242Z,24.2
2023-02-09T10:28:15.347Z,24.4
2023-02-09T10:29:31.473Z,25.2
2023-02-09T10:30:47.594Z,25.4
2023-02-09T10:32:04.699Z,25
2023-02-09T10:33:21.803Z,24.7
2023-02-09T10:34:38.908Z,27.3
2023-02-09T10:35:56.013Z,25.8
2023-02-09T10:37:13.118Z,24.6
2023-02-09T10:38:30.223Z,24.4
2023-02-09T10:39:47.327Z,24.9
2023-02-09T10:41:04.432Z,25.9
2023-02-09T10:42:21.536Z,25.3
2023-02-09T10:43:38.641Z,25.1
2023-02-09T10:44:55.746Z,25.7
2023-02-09T10:46:12.850Z,26
2023-02-09T10:47:28.971Z,25.4
2023-02-09T10:48:46.076Z,27.4
2023-02-09T10:50:03.181Z,26.7
2023-02-09T10:51:20.285Z,25.1
2023-02-09T10:52:37.390Z,25.6
2023-02-09T10:53:54.494Z,28.3
2023-02-09T10:55:11.599Z,27
2023-02-09T10:56:27.725Z,25.2
2023-02-09T10:57:43.843Z,26.3
2023-02-09T10:58:59.969Z,27.3
2023-02-09T11:00:16.090Z,26.8
2023-02-09T11:01:33.195Z,26.9
2023-02-09T11:02:50.300Z,25.4
2023-02-09T11:04:07.404Z,25.7
2023-02-09T11:05:24.509Z,27.6
2023-02-09T11:06:41.613Z,25.4
2023-02-09T11:07:58.718Z,25.2
2023-02-09T11:09:15.823Z,25.3
2023-02-09T11:10:32.927Z,27.2
2023-02-09T11:11:50.033Z,27.8
2023-02-09T11:13:07.137Z,26.3
2023-02-09T11:14:24.242Z,25.4
2023-02-09T11:15:41.347Z,27.5
2023-02-09T11:16:57.468Z,27.7
2023-02-09T11:18:14.573Z,26.9
2023-02-09T11:19:31.678Z,27.7
2023-02-09T11:20:48.783Z,26.4
2023-02-09T11:22:05.887Z,26.7
2023-02-09T11:23:22.992Z,26.1
2023-02-09T11:24:40.097Z,27.8
2023-02-09T11:25:56.223Z,28.1
2023-02-09T11:27:12.344Z,26.4
2023-02-09T11:28:29.449Z,29.3
2023-02-09T11:29:46.554Z,29.8
2023-02-09T11:32:19.785Z,28.8
2023-02-09T11:33:35.911Z,28
2023-02-09T11:34:52.032Z,27.9
2023-02-09T11:36:09.136Z,27.8
2023-02-09T11:37:26.241Z,27.9
2023-02-09T11:38:43.346Z,26.8
2023-02-09T11:40:00.451Z,27.2
2023-02-09T11:41:17.555Z,25.8
2023-02-09T11:42:34.661Z,28.5
2023-02-09T11:45:08.871Z,26.3
2023-02-09T11:46:25.976Z,28.4
2023-02-09T11:47:43.080Z,27.4
2023-02-09T11:49:00.185Z,25.4
2023-02-09T11:50:17.290Z,26.3
2023-02-09T11:51:33.410Z,26.3
2023-02-09T11:52:50.515Z,24.6
2023-02-09T11:54:07.620Z,25
2023-02-09T11:55:24.725Z,25.3
2023-02-09T11:56:41.830Z,25.9
2023-02-09T11:57:58.934Z,27.1
2023-02-09T11:59:16.039Z,26.9
2023-02-09T12:00:33.144Z,25.7
2023-02-09T12:01:49.270Z,27.7
2023-02-09T12:03:05.391Z,27.8
2023-02-09T12:04:22.495Z,26.9
2023-02-09T12:05:39.600Z,25.3
2023-02-09T12:06:56.705Z,27.9
2023-02-09T12:08:13.810Z,26.1
2023-02-09T12:09:29.936Z,27.5
2023-02-09T12:10:47.041Z,24.6
2023-02-09T12:12:03.162Z,26.6
2023-02-09T12:13:20.267Z,26.2
2023-02-09T12:14:37.372Z,24.5
2023-02-09T12:15:54.477Z,25.3
2023-02-09T12:17:11.582Z,24.7
2023-02-09T12:18:28.687Z,28.3
2023-02-09T12:19:45.792Z,27.2
2023-02-09T12:21:02.896Z,24.9
2023-02-09T12:30:02.630Z,24.6
2023-02-09T12:32:35.861Z,24.6
2023-02-09T12:37:43.301Z,24.8
2023-02-09T12:38:59.427Z,25.1
2023-02-09T12:40:15.548Z,24.8
2023-02-09T13:23:57.115Z,22.5
2023-02-09T13:25:13.236Z,21.9
2023-02-09T13:26:30.341Z,21.4
2023-02-09T13:27:47.446Z,20.7
2023-02-09T13:29:04.551Z,21.1
2023-02-09T13:30:21.656Z,23.2
2023-02-09T13:31:38.760Z,21
2023-02-09T13:32:55.865Z,19.9
2023-02-09T13:34:12.970Z,20.1
2023-02-09T13:35:30.075Z,21.4
2023-02-09T13:36:47.179Z,20.3
2023-02-09T13:38:04.284Z,20.7
2023-02-09T13:39:21.389Z,21.2
2023-02-09T13:40:38.494Z,19.8
2023-02-09T13:41:54.615Z,21.5
2023-02-09T13:43:11.720Z,21.7
2023-02-09T13:44:28.825Z,21.2
2023-02-09T13:45:45.929Z,22.6
2023-02-09T13:47:03.034Z,20.8
2023-02-09T13:48:19.160Z,22.3
2023-02-09T13:49:35.281Z,20.6
2023-02-09T13:50:52.386Z,19.5
2023-02-09T13:52:08.512Z,21.2
2023-02-09T13:53:24.632Z,19.7
2023-02-09T13:54:41.737Z,20.8
2023-02-09T13:55:58.842Z,20.8
2023-02-09T13:57:15.947Z,21.4
2023-02-09T13:58:33.051Z,19.1
2023-02-09T13:59:50.156Z,19.4
2023-02-09T14:01:07.261Z,19.5
2023-02-09T14:02:24.366Z,19.2
2023-02-09T14:03:41.470Z,19
2023-02-09T14:04:58.575Z,21.3
2023-02-09T14:06:14.701Z,18.4
2023-02-09T14:07:30.822Z,19.2
2023-02-09T14:08:47.927Z,18.5
2023-02-09T14:10:04.048Z,18.7
2023-02-09T14:11:21.152Z,19.4
2023-02-09T14:12:38.257Z,19.3
2023-02-09T14:13:55.362Z,20.8
2023-02-09T14:15:12.466Z,19.5
2023-02-09T14:16:29.571Z,19.6
2023-02-09T14:17:46.676Z,19.1
2023-02-09T14:19:03.781Z,18.3
2023-02-09T14:20:19.907Z,19.6
2023-02-09T14:21:36.028Z,19
2023-02-09T14:22:53.133Z,17.8
2023-02-09T14:24:10.237Z,19.6
2023-02-09T14:25:27.342Z,20.2
2023-02-09T14:26:44.448Z,20.8
2023-02-09T14:28:01.553Z,19.5
2023-02-09T14:29:18.657Z,19
2023-02-09T14:30:35.762Z,19.2
2023-02-09T14:31:52.867Z,19
2023-02-09T14:33:09.972Z,19.2
2023-02-09T14:34:27.076Z,18.5
2023-02-09T14:35:44.181Z,19.6
2023-02-09T14:37:01.286Z,19.4
2023-02-09T14:38:17.407Z,21.1
2023-02-09T14:39:34.511Z,21.8
2023-02-09T14:40:51.616Z,20.2
2023-02-09T14:42:08.721Z,20.3
2023-02-09T14:43:25.826Z,20.4
2023-02-09T14:44:42.930Z,19.8
2023-02-09T14:46:00.035Z,19
2023-02-09T14:47:17.140Z,19.9
2023-02-09T14:48:34.244Z,20
2023-02-09T14:49:51.349Z,19.5
2023-02-09T14:51:08.454Z,19.6
2023-02-09T14:52:25.559Z,18.5
2023-02-09T14:53:42.664Z,19.9
2023-02-09T14:54:58.784Z,21.1
2023-02-09T14:56:15.889Z,20.4
2023-02-09T14:57:32.994Z,19.3
2023-02-09T14:58:49.120Z,20.9
2023-02-09T15:00:05.241Z,19.2
2023-02-09T15:01:22.346Z,18.5
2023-02-09T15:02:39.451Z,19.6
2023-02-09T15:03:56.555Z,21.9
2023-02-09T15:05:13.661Z,21.2
2023-02-09T15:06:30.766Z,25.7
2023-02-09T15:07:47.871Z,26.5
2023-02-09T15:09:04.976Z,23.4
2023-02-09T15:10:22.081Z,22
2023-02-09T15:11:39.186Z,22.1
2023-02-09T15:12:56.290Z,21.1
2023-02-09T15:14:13.395Z,22.7
2023-02-09T15:15:30.500Z,22.1
2023-02-09T15:16:46.621Z,22.1
2023-02-09T15:18:03.726Z,21.4
2023-02-09T15:19:20.831Z,22.8
2023-02-09T15:20:37.936Z,23.6
2023-02-09T15:21:55.041Z,24.4
2023-02-09T15:23:12.145Z,23.3
2023-02-09T15:24:29.250Z,24
2023-02-09T15:25:45.376Z,24.4
2023-02-09T15:27:01.497Z,23
2023-02-09T15:28:17.623Z,23.2
2023-02-09T15:29:33.744Z,22.2
2023-02-09T15:30:49.870Z,23.7
2023-02-09T15:32:05.991Z,22.9
2023-02-09T15:33:23.096Z,22.3
2023-02-09T15:34:40.202Z,23
2023-02-09T15:35:57.307Z,24.4
2023-02-09T15:37:14.412Z,23.4
2023-02-09T15:38:31.517Z,21.8
2023-02-09T15:39:48.622Z,23.2
2023-02-09T15:41:05.727Z,23.1
2023-02-09T15:42:22.831Z,23.4
2023-02-09T15:43:39.936Z,24
2023-02-09T15:44:57.041Z,23.8
2023-02-09T15:46:14.146Z,22.7
2023-02-09T15:47:31.251Z,22
2023-02-09T15:48:47.372Z,22.9
2023-02-09T15:50:04.477Z,22.1
2023-02-09T15:51:21.582Z,24.4
2023-02-09T15:52:38.687Z,22.3
2023-02-09T15:53:55.791Z,25.3
2023-02-09T15:55:12.896Z,29.3
2023-02-09T15:56:30.001Z,24.2
2023-02-09T15:57:46.127Z,25
2023-02-09T15:59:02.248Z,25.1
2023-02-09T16:00:18.374Z,25.5
2023-02-09T16:01:34.495Z,24.8
2023-02-09T16:02:51.600Z,25.6
2023-02-09T16:04:08.705Z,23.7
2023-02-09T16:05:25.810Z,24.1
2023-02-09T16:06:42.915Z,23.3
2023-02-09T16:09:17.125Z,22.6
2023-02-09T16:10:34.230Z,24.4
2023-02-09T16:11:51.335Z,24.6
2023-02-09T16:13:08.440Z,24.3
2023-02-09T16:14:25.545Z,26.9
2023-02-09T16:15:42.650Z,24.7
2023-02-09T16:16:59.755Z,24.4
2023-02-09T16:18:15.876Z,23.6
2023-02-09T16:19:32.982Z,23.3
2023-02-09T16:20:50.087Z,25.9
2023-02-09T16:22:07.192Z,23.2
2023-02-09T16:23:24.297Z,23.7
2023-02-09T16:24:41.402Z,23.9
2023-02-09T16:25:58.507Z,22.7
2023-02-09T16:27:15.613Z,25.9
2023-02-09T16:28:31.739Z,24.9
2023-02-09T16:29:47.860Z,23.2
2023-02-09T16:31:03.987Z,26.8
2023-02-09T16:32:20.108Z,26.2
2023-02-09T16:33:37.213Z,25
2023-02-09T16:34:54.318Z,26.3
2023-02-09T16:36:11.424Z,29.8
2023-02-09T16:37:28.529Z,26.6
2023-02-09T16:38:45.634Z,27.8
2023-02-09T16:40:02.739Z,30.8
2023-02-09T16:41:19.845Z,29.1
2023-02-09T16:42:36.950Z,29.6
2023-02-09T16:43:54.055Z,29.8
2023-02-09T16:45:11.161Z,30.5
2023-02-09T16:46:28.266Z,28.5
2023-02-09T16:47:45.371Z,27.4
2023-02-09T16:49:01.492Z,27.5
2023-02-09T16:50:18.597Z,27.6
2023-02-09T16:51:35.702Z,25.6
2023-02-09T16:52:52.808Z,25.6
2023-02-09T16:54:09.913Z,27
2023-02-09T16:55:27.018Z,25.9
2023-02-09T16:56:44.123Z,27.1
2023-02-09T16:58:00.249Z,26.4
2023-02-09T16:59:16.370Z,25.1
2023-02-09T17:00:32.497Z,25.5
2023-02-09T17:01:48.618Z,27.7
2023-02-09T17:03:05.723Z,25.8
2023-02-09T17:04:22.828Z,26.9
2023-02-09T17:05:39.933Z,26.3
2023-02-09T17:06:57.038Z,26.6
2023-02-09T17:08:14.143Z,27.3
2023-02-09T17:09:31.248Z,26.1
2023-02-09T17:10:48.354Z,26.8
2023-02-09T17:12:05.459Z,28.2
2023-02-09T17:13:22.564Z,28.3
2023-02-09T17:14:39.669Z,28
2023-02-09T17:15:56.775Z,30.2
2023-02-09T17:17:13.880Z,28.9
2023-02-09T17:18:30.001Z,29.9
2023-02-09T17:19:47.108Z,27
2023-02-09T17:21:04.213Z,32.1
2023-02-09T17:22:21.318Z,31.8
2023-02-09T17:23:38.423Z,34.5
2023-02-09T17:24:55.528Z,31.1
2023-02-09T17:26:12.634Z,31.7
2023-02-09T17:27:28.760Z,31.2
2023-02-09T17:28:44.882Z,32.6
2023-02-09T17:30:01.987Z,33.7
2023-02-09T17:31:19.092Z,32.2
2023-02-09T17:32:35.218Z,31.2
2023-02-09T17:33:51.340Z,29.9
2023-02-09T17:35:08.446Z,29.2
2023-02-09T17:36:25.551Z,28.1
2023-02-09T17:37:42.657Z,29.1
2023-02-09T17:38:59.762Z,29.2
2023-02-09T17:40:16.867Z,33.1
2023-02-09T17:41:33.973Z,31.5
2023-02-09T17:42:51.078Z,37.1
2023-02-09T17:44:08.184Z,36.5
2023-02-09T17:45:25.289Z,33.6
2023-02-09T17:46:42.395Z,32.1
2023-02-09T17:47:59.500Z,34.4
2023-02-09T17:49:16.606Z,34.9
2023-02-09T17:50:32.727Z,33.2
2023-02-09T17:51:49.834Z,34.4
2023-02-09T17:53:06.939Z,31.8
2023-02-09T17:54:24.045Z,32.5
2023-02-09T17:55:41.150Z,36.1
2023-02-09T17:56:58.256Z,37.1
2023-02-09T17:58:15.361Z,36.5
2023-02-09T17:59:31.488Z,36.8
2023-02-09T18:00:47.609Z,36.2
2023-02-09T18:02:03.736Z,37.1
2023-02-09T18:03:19.858Z,36.2
2023-02-09T18:04:36.963Z,35.5
2023-02-09T18:05:54.069Z,38.3
2023-02-09T18:07:11.174Z,38
2023-02-09T18:08:28.280Z,36.3
2023-02-09T18:09:45.385Z,37.9
2023-02-09T18:11:02.491Z,36.3
2023-02-09T18:12:19.597Z,36.8